createdAt,value
2018-05-03T00:00:24.633Z,0
2018-05-03T00:01:25.716Z,0
2018-05-03T00:02:25.714Z,0
2018-05-03T00:03:25.418Z,0
2018-05-03T00:04:26.797Z,0
2018-05-03T00:05:25.914Z,0
2018-05-03T00:06:25.016Z,0
2018-05-03T00:07:25.250Z,0
2018-05-03T00:08:25.907Z,0
2018-05-03T00:09:27.058Z,0
2018-05-03T00:10:45.688Z,0
2018-05-03T00:11:45.645Z,0
2018-05-03T00:12:46.146Z,0
2018-05-03T00:14:06.825Z,0
2018-05-03T00:15:27.734Z,0
2018-05-03T00:16:28.455Z,0
2018-05-03T00:17:28.108Z,0
2018-05-03T00:18:48.748Z,0
2018-05-03T00:19:49.236Z,0
2018-05-03T00:20:48.946Z,0
2018-05-03T00:21:48.687Z,0
2018-05-03T00:22:49.735Z,0
2018-05-03T00:23:49.406Z,0
2018-05-03T00:24:49.537Z,0
2018-05-03T00:25:49.535Z,0
2018-05-03T00:26:49.426Z,0
2018-05-03T00:27:48.918Z,0
2018-05-03T00:28:48.517Z,0
2018-05-03T00:29:49.351Z,0
2018-05-03T00:30:49.291Z,0
2018-05-03T00:31:49.355Z,0
2018-05-03T00:32:49.201Z,0
2018-05-03T00:33:49.116Z,0
2018-05-03T00:34:48.643Z,0
2018-05-03T00:35:49.103Z,0
2018-05-03T00:36:48.819Z,0
2018-05-03T00:37:48.434Z,0
2018-05-03T00:39:10.327Z,0
2018-05-03T00:40:31.017Z,0
2018-05-03T00:41:30.842Z,0
2018-05-03T00:42:31.544Z,0
2018-05-03T00:43:31.299Z,0
2018-05-03T00:44:30.979Z,0
2018-05-03T00:46:33.460Z,0
2018-05-03T00:47:34.485Z,0
2018-05-03T00:48:34.349Z,0
2018-05-03T00:49:34.196Z,0
2018-05-03T00:50:33.940Z,0
2018-05-03T00:51:34.047Z,0
2018-05-03T00:52:33.616Z,0
2018-05-03T00:53:34.366Z,0
2018-05-03T00:54:34.069Z,0
2018-05-03T00:55:33.941Z,0
2018-05-03T00:56:33.571Z,0
2018-05-03T00:57:34.320Z,0
2018-05-03T00:58:34.311Z,0
2018-05-03T00:59:34.435Z,0
2018-05-03T01:00:34.426Z,0
2018-05-03T01:01:34.160Z,0
2018-05-03T01:02:33.938Z,0
2018-05-03T01:03:33.967Z,0
2018-05-03T01:04:33.920Z,0
2018-05-03T01:05:33.831Z,0
2018-05-03T01:06:33.509Z,0
2018-05-03T01:07:34.353Z,0
2018-05-03T01:08:34.330Z,0
2018-05-03T01:09:54.312Z,0
2018-05-03T01:10:55.376Z,0
2018-05-03T01:11:55.310Z,0
2018-05-03T01:13:16.146Z,0
2018-05-03T01:14:15.767Z,0
2018-05-03T01:15:16.803Z,0
2018-05-03T01:16:16.890Z,0
2018-05-03T01:17:17.008Z,0
2018-05-03T01:18:16.578Z,0
2018-05-03T01:19:16.622Z,0
2018-05-03T01:20:16.533Z,0
2018-05-03T01:21:16.570Z,0
2018-05-03T01:22:17.354Z,0
2018-05-03T01:23:15.965Z,0
2018-05-03T01:24:16.914Z,0
2018-05-03T01:25:16.645Z,0
2018-05-03T01:26:37.172Z,0
2018-05-03T01:27:58.599Z,0
2018-05-03T01:28:58.257Z,0
2018-05-03T01:29:58.837Z,0
2018-05-03T01:30:58.390Z,0
2018-05-03T01:31:59.454Z,0
2018-05-03T01:32:59.359Z,0
2018-05-03T01:33:59.370Z,0
2018-05-03T01:34:59.028Z,0
2018-05-03T01:35:58.909Z,0
2018-05-03T01:36:58.491Z,0
2018-05-03T01:38:39.894Z,0
2018-05-03T01:39:39.545Z,0
2018-05-03T01:40:40.103Z,0
2018-05-03T01:41:40.116Z,0
2018-05-03T01:42:40.095Z,0
2018-05-03T01:43:39.710Z,0
2018-05-03T01:44:40.383Z,0
2018-05-03T01:45:39.908Z,0
2018-05-03T01:46:40.033Z,0
2018-05-03T01:47:39.813Z,0
2018-05-03T01:48:40.402Z,0
2018-05-03T01:49:40.418Z,0
2018-05-03T01:51:00.350Z,0
2018-05-03T01:52:00.882Z,0
2018-05-03T01:53:00.652Z,0
2018-05-03T01:54:01.479Z,0
2018-05-03T01:55:01.032Z,0
2018-05-03T01:56:00.848Z,0
2018-05-03T01:57:00.511Z,0
2018-05-03T01:58:01.522Z,0
2018-05-03T01:59:01.559Z,0
2018-05-03T02:00:01.602Z,0
2018-05-03T02:01:01.180Z,0
2018-05-03T02:02:01.179Z,0
2018-05-03T02:03:01.153Z,0
2018-05-03T02:04:00.766Z,0
2018-05-03T02:05:00.733Z,0
2018-05-03T02:06:01.748Z,0
2018-05-03T02:07:00.654Z,0
2018-05-03T02:08:00.687Z,0
2018-05-03T02:09:00.777Z,0
2018-05-03T02:10:00.996Z,0
2018-05-03T02:11:01.052Z,0
2018-05-03T02:12:01.218Z,0
2018-05-03T02:13:01.279Z,0
2018-05-03T02:14:00.845Z,0
2018-05-03T02:15:00.872Z,0
2018-05-03T02:16:00.779Z,0
2018-05-03T02:17:00.647Z,0
2018-05-03T02:18:01.223Z,0
2018-05-03T02:19:00.715Z,0
2018-05-03T02:20:21.195Z,0
2018-05-03T02:21:21.806Z,0
2018-05-03T02:22:21.826Z,0
2018-05-03T02:23:21.459Z,0
2018-05-03T02:24:21.227Z,0
2018-05-03T02:25:22.311Z,0
2018-05-03T02:26:22.066Z,0
2018-05-03T02:27:22.189Z,0
2018-05-03T02:28:22.306Z,0
2018-05-03T02:29:22.362Z,0
2018-05-03T02:30:21.116Z,0
2018-05-03T02:31:22.807Z,0
2018-05-03T02:32:21.557Z,0
2018-05-03T02:33:21.085Z,0
2018-05-03T02:34:43.031Z,0
2018-05-03T02:35:44.071Z,0
2018-05-03T02:36:43.017Z,0
2018-05-03T02:37:43.067Z,0
2018-05-03T02:39:03.519Z,0
2018-05-03T02:40:04.471Z,0
2018-05-03T02:41:04.406Z,0
2018-05-03T02:42:04.105Z,0
2018-05-03T02:44:04.938Z,0
2018-05-03T02:45:06.035Z,0
2018-05-03T02:46:06.006Z,0
2018-05-03T02:47:05.977Z,0
2018-05-03T02:48:06.096Z,0
2018-05-03T02:49:05.633Z,0
2018-05-03T02:50:05.516Z,0
2018-05-03T02:51:05.013Z,0
2018-05-03T02:52:06.057Z,0
2018-05-03T02:53:05.604Z,0
2018-05-03T02:54:05.303Z,0
2018-05-03T02:55:46.695Z,0
2018-05-03T02:56:47.319Z,0
2018-05-03T02:58:08.032Z,0
2018-05-03T02:59:09.099Z,0
2018-05-03T03:00:09.173Z,0
2018-05-03T03:01:29.292Z,0
2018-05-03T03:02:30.430Z,0
2018-05-03T03:03:29.305Z,0
2018-05-03T03:04:29.872Z,0
2018-05-03T03:05:29.899Z,0
2018-05-03T03:06:29.669Z,0
2018-05-03T03:07:30.531Z,0
2018-05-03T03:08:30.140Z,0
2018-05-03T03:09:29.782Z,0
2018-05-03T03:10:29.723Z,0
2018-05-03T03:11:29.279Z,0
2018-05-03T03:12:29.812Z,0
2018-05-03T03:13:29.753Z,0
2018-05-03T03:14:29.613Z,0
2018-05-03T03:15:29.329Z,0
2018-05-03T03:16:30.272Z,0
2018-05-03T03:17:29.960Z,0
2018-05-03T03:18:29.798Z,0
2018-05-03T03:19:29.648Z,0
2018-05-03T03:20:29.269Z,0
2018-05-03T03:21:29.853Z,0
2018-05-03T03:22:29.834Z,0
2018-05-03T03:23:29.697Z,0
2018-05-03T03:24:29.208Z,0
2018-05-03T03:25:50.397Z,0
2018-05-03T03:27:32.553Z,0
2018-05-03T03:29:14.485Z,0
2018-05-03T03:30:15.018Z,0
2018-05-03T03:31:14.919Z,0
2018-05-03T03:32:15.003Z,0
2018-05-03T03:33:14.555Z,0
2018-05-03T03:34:15.474Z,0
2018-05-03T03:35:15.029Z,0
2018-05-03T03:36:14.628Z,0
2018-05-03T03:37:14.687Z,0
2018-05-03T03:38:14.511Z,0
2018-05-03T03:39:34.618Z,0
2018-05-03T03:40:35.484Z,0
2018-05-03T03:41:56.299Z,0
2018-05-03T03:42:56.554Z,0
2018-05-03T03:43:56.571Z,0
2018-05-03T03:44:56.048Z,0
2018-05-03T03:45:56.550Z,0
2018-05-03T03:46:56.258Z,0
2018-05-03T03:47:57.303Z,0
2018-05-03T03:48:56.481Z,0
2018-05-03T03:49:56.595Z,1
2018-05-03T03:50:57.885Z,1
2018-05-03T03:51:56.905Z,1
2018-05-03T03:53:24.439Z,1
2018-05-03T03:54:24.688Z,1
2018-05-03T03:55:25.410Z,1
2018-05-03T03:56:24.557Z,1
2018-05-03T03:57:24.113Z,2
2018-05-03T03:58:26.876Z,2
2018-05-03T03:59:27.806Z,2
2018-05-03T04:00:26.288Z,2
2018-05-03T04:01:25.330Z,2
2018-05-03T04:02:27.949Z,2
2018-05-03T04:03:25.092Z,2
2018-05-03T04:04:31.021Z,2
2018-05-03T04:05:28.230Z,2
2018-05-03T04:06:28.059Z,3
2018-05-03T04:07:23.199Z,3
2018-05-03T04:08:22.535Z,3
2018-05-03T04:09:22.928Z,4
2018-05-03T04:10:29.790Z,5
2018-05-03T04:11:21.821Z,5
2018-05-03T04:12:22.956Z,6
2018-05-03T04:13:21.872Z,6
2018-05-03T04:14:22.568Z,7
2018-05-03T04:15:23.086Z,8
2018-05-03T04:16:23.583Z,9
2018-05-03T04:17:22.913Z,9
2018-05-03T04:18:22.801Z,10
2018-05-03T04:19:22.594Z,10
2018-05-03T04:20:22.610Z,11
2018-05-03T04:21:22.625Z,11
2018-05-03T04:22:43.271Z,12
2018-05-03T04:23:43.441Z,13
2018-05-03T04:24:43.474Z,13
2018-05-03T04:25:43.664Z,14
2018-05-03T04:26:43.731Z,14
2018-05-03T04:27:44.023Z,15
2018-05-03T04:28:44.178Z,16
2018-05-03T04:29:43.956Z,16
2018-05-03T04:30:44.262Z,17
2018-05-03T04:31:43.621Z,17
2018-05-03T04:32:43.764Z,18
2018-05-03T04:33:44.562Z,19
2018-05-03T04:35:04.592Z,19
2018-05-03T04:36:05.684Z,19
2018-05-03T04:37:05.142Z,20
2018-05-03T04:38:05.321Z,21
2018-05-03T04:39:25.417Z,21
2018-05-03T04:40:27.097Z,22
2018-05-03T04:41:26.295Z,23
2018-05-03T04:42:25.107Z,24
2018-05-03T04:43:25.382Z,24
2018-05-03T04:44:25.192Z,25
2018-05-03T04:45:47.524Z,26
2018-05-03T04:47:27.735Z,27
2018-05-03T04:48:28.559Z,28
2018-05-03T04:49:28.566Z,29
2018-05-03T04:50:28.730Z,29
2018-05-03T04:51:28.541Z,30
2018-05-03T04:52:28.347Z,31
2018-05-03T04:53:49.105Z,32
2018-05-03T04:54:50.346Z,33
2018-05-03T04:55:49.224Z,34
2018-05-03T04:57:10.891Z,35
2018-05-03T04:58:11.056Z,36
2018-05-03T04:59:33.498Z,37
2018-05-03T05:00:33.489Z,37
2018-05-03T05:01:34.659Z,38
2018-05-03T05:02:33.677Z,40
2018-05-03T05:03:54.574Z,41
2018-05-03T05:05:15.224Z,42
2018-05-03T05:06:57.768Z,43
2018-05-03T05:07:57.509Z,44
2018-05-03T05:08:58.753Z,45
2018-05-03T05:09:57.803Z,46
2018-05-03T05:10:57.866Z,47
2018-05-03T05:11:57.922Z,48
2018-05-03T05:12:58.152Z,49
2018-05-03T05:13:58.142Z,50
2018-05-03T05:14:57.954Z,50
2018-05-03T05:15:57.868Z,51
2018-05-03T05:17:18.717Z,52
2018-05-03T05:18:19.720Z,54
2018-05-03T05:19:18.430Z,55
2018-05-03T05:20:19.752Z,55
2018-05-03T05:21:19.367Z,57
2018-05-03T05:22:19.107Z,59
2018-05-03T05:23:39.444Z,59
2018-05-03T05:25:21.664Z,61
2018-05-03T05:26:21.447Z,64
2018-05-03T05:27:23.491Z,64
2018-05-03T05:28:22.699Z,65
2018-05-03T05:29:21.935Z,66
2018-05-03T05:30:21.901Z,67
2018-05-03T05:31:22.042Z,69
2018-05-03T05:32:22.233Z,70
2018-05-03T05:33:22.046Z,72
2018-05-03T05:34:21.719Z,73
2018-05-03T05:35:22.442Z,74
2018-05-03T05:36:22.282Z,75
2018-05-03T05:37:22.584Z,77
2018-05-03T05:38:43.167Z,79
2018-05-03T05:39:43.238Z,81
2018-05-03T05:40:43.343Z,82
2018-05-03T05:41:46.799Z,86
2018-05-03T05:43:33.451Z,85
2018-05-03T05:44:34.154Z,87
2018-05-03T05:45:34.152Z,87
2018-05-03T05:46:34.009Z,87
2018-05-03T05:47:34.328Z,89
2018-05-03T05:48:34.164Z,89
2018-05-03T05:49:56.309Z,92
2018-05-03T05:50:57.142Z,98
2018-05-03T05:51:56.839Z,93
2018-05-03T05:52:56.538Z,95
2018-05-03T05:53:56.342Z,96
2018-05-03T05:54:57.100Z,100
2018-05-03T05:55:57.090Z,100
2018-05-03T05:56:56.853Z,113
2018-05-03T05:57:56.888Z,113
2018-05-03T05:58:56.513Z,110
2018-05-03T05:59:57.510Z,105
2018-05-03T06:00:56.317Z,108
2018-05-03T06:01:57.102Z,109
2018-05-03T06:03:38.530Z,109
2018-05-03T06:04:38.898Z,113
2018-05-03T06:05:39.406Z,158
2018-05-03T06:06:39.444Z,149
2018-05-03T06:07:39.111Z,125
2018-05-03T06:08:59.275Z,120
2018-05-03T06:10:00.907Z,122
2018-05-03T06:10:59.628Z,126
2018-05-03T06:12:00.310Z,126
2018-05-03T06:13:00.211Z,131
2018-05-03T06:14:00.077Z,170
2018-05-03T06:14:59.874Z,144
2018-05-03T06:15:59.833Z,180
2018-05-03T06:16:59.733Z,147
2018-05-03T06:18:00.046Z,141
2018-05-03T06:19:00.149Z,139
2018-05-03T06:19:59.970Z,149
2018-05-03T06:21:20.598Z,149
2018-05-03T06:22:21.821Z,164
2018-05-03T06:23:21.860Z,198
2018-05-03T06:24:20.655Z,235
2018-05-03T06:25:22.445Z,158
2018-05-03T06:26:42.545Z,149
2018-05-03T06:27:42.613Z,147
2018-05-03T06:28:42.361Z,148
2018-05-03T06:29:43.114Z,151
2018-05-03T06:30:43.051Z,159
2018-05-03T06:31:43.444Z,156
2018-05-03T06:32:42.286Z,197
2018-05-03T06:33:43.037Z,243
2018-05-03T06:35:03.625Z,203
2018-05-03T06:36:03.298Z,177
2018-05-03T06:37:03.267Z,169
2018-05-03T06:38:24.579Z,191
2018-05-03T06:39:25.764Z,190
2018-05-03T06:40:24.866Z,286
2018-05-03T06:41:24.747Z,179
2018-05-03T06:42:25.540Z,274
2018-05-03T06:43:25.667Z,314
2018-05-03T06:44:25.552Z,294
2018-05-03T06:45:46.438Z,230
2018-05-03T06:46:47.229Z,299
2018-05-03T06:47:47.380Z,370
2018-05-03T06:49:34.332Z,290
2018-05-03T06:50:33.721Z,331
2018-05-03T06:51:33.906Z,297
2018-05-03T06:52:34.223Z,247
2018-05-03T06:53:56.588Z,191
2018-05-03T06:54:55.724Z,238
2018-05-03T06:56:16.424Z,313
2018-05-03T06:57:17.598Z,208
2018-05-03T06:58:16.254Z,186
2018-05-03T06:59:16.899Z,291
2018-05-03T07:00:17.037Z,252
2018-05-03T07:01:16.815Z,290
2018-05-03T07:02:37.573Z,316
2018-05-03T07:03:37.242Z,337
2018-05-03T07:04:38.507Z,326
2018-05-03T07:05:37.711Z,251
2018-05-03T07:06:37.487Z,221
2018-05-03T07:07:37.274Z,216
2018-05-03T07:08:38.405Z,256
2018-05-03T07:09:38.204Z,255
2018-05-03T07:10:38.031Z,259
2018-05-03T07:11:37.792Z,326
2018-05-03T07:12:37.659Z,265
2018-05-03T07:13:38.297Z,293
2018-05-03T07:14:59.049Z,454
2018-05-03T07:16:00.209Z,473
2018-05-03T07:17:00.261Z,486
2018-05-03T07:17:59.033Z,401
2018-05-03T07:18:59.720Z,321
2018-05-03T07:19:59.681Z,410
2018-05-03T07:20:59.524Z,331
2018-05-03T07:21:59.814Z,336
2018-05-03T07:22:59.629Z,396
2018-05-03T07:23:59.395Z,316
2018-05-03T07:24:59.906Z,352
2018-05-03T07:25:59.650Z,352
2018-05-03T07:27:20.220Z,498
2018-05-03T07:28:41.954Z,451
2018-05-03T07:29:41.814Z,455
2018-05-03T07:30:41.750Z,498
2018-05-03T07:31:41.952Z,440
2018-05-03T07:33:02.443Z,388
2018-05-03T07:34:03.200Z,380
2018-05-03T07:35:03.316Z,406
2018-05-03T07:36:03.522Z,485
2018-05-03T07:37:03.830Z,405
2018-05-03T07:38:03.001Z,333
2018-05-03T07:39:03.288Z,292
2018-05-03T07:40:03.415Z,343
2018-05-03T07:41:24.300Z,443
2018-05-03T07:42:47.140Z,380
2018-05-03T07:43:46.917Z,406
2018-05-03T07:44:47.170Z,470
2018-05-03T07:46:07.825Z,504
2018-05-03T07:47:07.975Z,534
2018-05-03T07:48:07.724Z,494
2018-05-03T07:49:08.069Z,321
2018-05-03T07:50:29.241Z,334
2018-05-03T07:51:29.412Z,254
2018-05-03T07:52:29.122Z,301
2018-05-03T07:53:29.085Z,392
2018-05-03T07:54:29.045Z,376
2018-05-03T07:55:51.146Z,399
2018-05-03T07:56:51.089Z,446
2018-05-03T07:57:51.295Z,427
2018-05-03T07:58:51.410Z,473
2018-05-03T07:59:51.347Z,406
2018-05-03T08:00:51.282Z,339
2018-05-03T08:01:51.246Z,313
2018-05-03T08:02:50.989Z,303
2018-05-03T08:04:11.862Z,326
2018-05-03T08:05:12.707Z,438
2018-05-03T08:06:32.924Z,329
2018-05-03T08:07:34.163Z,333
2018-05-03T08:08:33.994Z,255
2018-05-03T08:09:34.130Z,263
2018-05-03T08:10:33.979Z,257
2018-05-03T08:12:16.279Z,289
2018-05-03T08:13:16.668Z,398
2018-05-03T08:14:15.571Z,346
2018-05-03T08:15:16.374Z,346
2018-05-03T08:16:36.667Z,379
2018-05-03T08:17:37.471Z,348
2018-05-03T08:18:37.282Z,415
2018-05-03T08:19:37.202Z,384
2018-05-03T08:20:37.109Z,433
2018-05-03T08:21:37.259Z,448
2018-05-03T08:22:37.179Z,527
2018-05-03T08:23:57.540Z,438
2018-05-03T08:24:58.553Z,415
2018-05-03T08:25:58.411Z,395
2018-05-03T08:26:58.222Z,438
2018-05-03T08:27:58.275Z,327
2018-05-03T08:28:58.679Z,386
2018-05-03T08:29:58.052Z,416
2018-05-03T08:30:57.813Z,479
2018-05-03T08:31:58.550Z,316
2018-05-03T08:32:58.780Z,304
2018-05-03T08:33:58.029Z,345
2018-05-03T08:34:57.962Z,377
2018-05-03T08:35:58.137Z,291
2018-05-03T08:36:57.969Z,404
2018-05-03T08:37:57.782Z,416
2018-05-03T08:39:18.983Z,351
2018-05-03T08:40:19.362Z,408
2018-05-03T08:41:19.434Z,438
2018-05-03T08:42:19.555Z,373
2018-05-03T08:43:19.472Z,424
2018-05-03T08:44:19.223Z,557
2018-05-03T08:45:19.660Z,624
2018-05-03T08:46:19.469Z,553
2018-05-03T08:47:40.199Z,525
2018-05-03T08:48:40.369Z,475
2018-05-03T08:49:40.584Z,510
2018-05-03T08:50:41.009Z,637
2018-05-03T08:51:40.261Z,608
2018-05-03T08:52:40.008Z,508
2018-05-03T08:53:40.178Z,581
2018-05-03T08:54:40.141Z,648
2018-05-03T08:55:39.823Z,643
2018-05-03T08:56:41.036Z,673
2018-05-03T08:57:39.866Z,647
2018-05-03T08:58:40.514Z,567
2018-05-03T08:59:40.257Z,437
2018-05-03T09:00:40.009Z,439
2018-05-03T09:01:40.740Z,442
2018-05-03T09:02:40.614Z,636
2018-05-03T09:03:40.671Z,571
2018-05-03T09:04:40.583Z,582
2018-05-03T09:05:40.373Z,544
2018-05-03T09:06:40.204Z,496
2018-05-03T09:07:40.204Z,413
2018-05-03T09:08:40.142Z,694
2018-05-03T09:09:40.618Z,611
2018-05-03T09:10:40.639Z,502
2018-05-03T09:11:40.845Z,453
2018-05-03T09:12:40.697Z,612
2018-05-03T09:13:40.335Z,550
2018-05-03T09:14:40.433Z,592
2018-05-03T09:15:40.239Z,536
2018-05-03T09:16:39.922Z,471
2018-05-03T09:17:40.313Z,560
2018-05-03T09:18:40.659Z,556
2018-05-03T09:20:00.871Z,668
2018-05-03T09:21:01.859Z,667
2018-05-03T09:22:02.006Z,692
2018-05-03T09:23:02.227Z,658
2018-05-03T09:24:01.332Z,724
2018-05-03T09:25:01.464Z,708
2018-05-03T09:26:01.482Z,653
2018-05-03T09:27:01.300Z,698
2018-05-03T09:28:01.661Z,624
2018-05-03T09:29:01.592Z,582
2018-05-03T09:30:01.493Z,634
2018-05-03T09:31:01.796Z,662
2018-05-03T09:32:02.104Z,259
2018-05-03T09:33:02.373Z,369
2018-05-03T09:34:01.537Z,527
2018-05-03T09:35:01.796Z,222
2018-05-03T09:36:01.994Z,215
2018-05-03T09:37:01.032Z,494
2018-05-03T09:38:01.362Z,435
2018-05-03T09:39:01.632Z,322
2018-05-03T09:40:01.816Z,268
2018-05-03T09:41:01.938Z,268
2018-05-03T09:42:02.113Z,404
2018-05-03T09:43:00.893Z,658
2018-05-03T09:44:01.802Z,483
2018-05-03T09:45:02.092Z,398
2018-05-03T09:46:00.926Z,660
2018-05-03T09:47:02.129Z,573
2018-05-03T09:48:01.466Z,462
2018-05-03T09:49:01.849Z,500
2018-05-03T09:50:02.121Z,616
2018-05-03T09:51:01.278Z,539
2018-05-03T09:52:01.294Z,631
2018-05-03T09:53:01.577Z,569
2018-05-03T09:54:01.789Z,422
2018-05-03T09:55:01.997Z,489
2018-05-03T09:56:00.831Z,595
2018-05-03T09:57:23.423Z,435
2018-05-03T09:58:23.277Z,311
2018-05-03T09:59:23.444Z,513
2018-05-03T10:00:23.331Z,575
2018-05-03T10:01:23.620Z,585
2018-05-03T10:02:22.872Z,585
2018-05-03T10:03:23.089Z,530
2018-05-03T10:04:23.008Z,702
2018-05-03T10:05:23.147Z,692
2018-05-03T10:06:23.051Z,609
2018-05-03T10:07:43.814Z,475
2018-05-03T10:08:43.862Z,427
2018-05-03T10:09:43.711Z,695
2018-05-03T10:10:43.996Z,530
2018-05-03T10:11:43.970Z,719
2018-05-03T10:12:44.034Z,604
2018-05-03T10:13:43.902Z,505
2018-05-03T10:15:26.128Z,517
2018-05-03T10:16:26.199Z,291
2018-05-03T10:17:26.252Z,403
2018-05-03T10:18:26.053Z,555
2018-05-03T10:19:25.857Z,375
2018-05-03T10:20:27.251Z,256
2018-05-03T10:21:26.445Z,241
2018-05-03T10:22:26.343Z,229
2018-05-03T10:23:26.805Z,223
2018-05-03T10:24:26.567Z,209
2018-05-03T10:25:47.003Z,203
2018-05-03T10:26:48.260Z,202
2018-05-03T10:27:47.491Z,226
2018-05-03T10:28:47.475Z,505
2018-05-03T10:29:47.364Z,290
2018-05-03T10:30:47.198Z,326
2018-05-03T10:32:07.990Z,451
2018-05-03T10:33:08.772Z,660
2018-05-03T10:34:09.672Z,479
2018-05-03T10:35:09.092Z,445
2018-05-03T10:36:08.447Z,503
2018-05-03T10:37:08.668Z,714
2018-05-03T10:38:08.470Z,551
2018-05-03T10:39:29.228Z,570
2018-05-03T10:40:29.536Z,467
2018-05-03T10:41:29.766Z,678
2018-05-03T10:42:29.598Z,614
2018-05-03T10:43:29.536Z,546
2018-05-03T10:44:29.683Z,528
2018-05-03T10:45:29.821Z,262
2018-05-03T10:46:29.973Z,245
2018-05-03T10:47:29.691Z,300
2018-05-03T10:48:29.576Z,677
2018-05-03T10:49:29.540Z,536
2018-05-03T10:50:29.654Z,487
2018-05-03T10:51:29.450Z,392
2018-05-03T10:52:50.511Z,637
2018-05-03T10:53:51.138Z,627
2018-05-03T10:54:51.182Z,633
2018-05-03T10:56:54.615Z,664
2018-05-03T10:58:14.439Z,547
2018-05-03T10:59:15.296Z,591
2018-05-03T11:00:15.546Z,572
2018-05-03T11:01:15.364Z,499
2018-05-03T11:02:16.286Z,672
2018-05-03T11:03:15.445Z,392
2018-05-03T11:04:15.373Z,535
2018-05-03T11:05:15.209Z,309
2018-05-03T11:06:14.868Z,619
2018-05-03T11:07:14.740Z,542
2018-05-03T11:08:14.933Z,449
2018-05-03T11:09:15.513Z,461
2018-05-03T11:10:15.377Z,580
2018-05-03T11:11:15.753Z,734
2018-05-03T11:12:15.000Z,723
2018-05-03T11:13:15.289Z,571
2018-05-03T11:14:36.120Z,647
2018-05-03T11:15:37.272Z,734
2018-05-03T11:16:36.634Z,789
2018-05-03T11:17:36.891Z,814
2018-05-03T11:18:37.083Z,626
2018-05-03T11:19:37.390Z,424
2018-05-03T11:20:36.328Z,365
2018-05-03T11:21:57.379Z,305
2018-05-03T11:22:57.090Z,248
2018-05-03T11:23:57.969Z,294
2018-05-03T11:24:58.206Z,254
2018-05-03T11:26:39.983Z,235
2018-05-03T11:27:39.864Z,211
2018-05-03T11:28:39.796Z,204
2018-05-03T11:29:40.005Z,214
2018-05-03T11:30:40.785Z,221
2018-05-03T11:31:41.466Z,249
2018-05-03T11:32:39.744Z,577
2018-05-03T11:34:00.996Z,615
2018-05-03T11:35:21.750Z,518
2018-05-03T11:36:22.985Z,528
2018-05-03T11:37:22.255Z,527
2018-05-03T11:38:43.718Z,485
2018-05-03T11:39:43.397Z,467
2018-05-03T11:40:44.722Z,686
2018-05-03T11:41:43.995Z,667
2018-05-03T11:42:44.536Z,553
2018-05-03T11:43:44.371Z,590
2018-05-03T11:44:44.308Z,599
2018-05-03T11:45:44.377Z,217
2018-05-03T11:46:44.623Z,198
2018-05-03T11:47:44.377Z,196
2018-05-03T11:48:45.208Z,204
2018-05-03T11:49:43.956Z,255
2018-05-03T11:50:43.896Z,434
2018-05-03T11:51:44.170Z,647
2018-05-03T11:53:08.766Z,689
2018-05-03T11:54:05.952Z,700
2018-05-03T11:55:06.160Z,684
2018-05-03T11:56:05.527Z,590
2018-05-03T11:57:06.321Z,661
2018-05-03T11:58:05.828Z,682
2018-05-03T11:59:06.173Z,682
2018-05-03T12:00:05.983Z,682
2018-05-03T12:01:06.390Z,752
2018-05-03T12:02:05.477Z,767
2018-05-03T12:03:05.205Z,716
2018-05-03T12:04:05.317Z,726
2018-05-03T12:05:05.206Z,539
2018-05-03T12:06:05.630Z,501
2018-05-03T12:07:05.916Z,470
2018-05-03T12:08:05.786Z,580
2018-05-03T12:09:28.284Z,696
2018-05-03T12:10:28.191Z,804
2018-05-03T12:11:28.309Z,627
2018-05-03T12:12:28.448Z,839
2018-05-03T12:13:34.180Z,856
2018-05-03T12:14:28.536Z,776
2018-05-03T12:16:10.883Z,715
2018-05-03T12:17:12.073Z,702
2018-05-03T12:18:32.210Z,574
2018-05-03T12:19:53.781Z,515
2018-05-03T12:20:54.380Z,737
2018-05-03T12:21:55.469Z,750
2018-05-03T12:23:57.239Z,538
2018-05-03T12:24:57.220Z,560
2018-05-03T12:25:57.583Z,248
2018-05-03T12:26:57.690Z,240
2018-05-03T12:27:58.429Z,225
2018-05-03T12:28:57.973Z,188
2018-05-03T12:29:57.074Z,171
2018-05-03T12:30:57.241Z,175
2018-05-03T12:32:18.978Z,190
2018-05-03T12:33:18.115Z,176
2018-05-03T12:34:18.418Z,172
2018-05-03T12:35:18.464Z,188
2018-05-03T12:36:18.705Z,185
2018-05-03T12:37:19.141Z,201
2018-05-03T12:38:18.631Z,254
2018-05-03T12:39:40.608Z,197
2018-05-03T12:40:40.777Z,185
2018-05-03T12:41:40.153Z,236
2018-05-03T12:42:40.345Z,212
2018-05-03T12:43:40.758Z,229
2018-05-03T12:45:01.725Z,191
2018-05-03T12:46:02.128Z,173
2018-05-03T12:47:22.878Z,193
2018-05-03T12:48:24.244Z,494
2018-05-03T12:49:22.967Z,540
2018-05-03T12:50:44.015Z,395
2018-05-03T12:51:44.385Z,303
2018-05-03T12:52:44.638Z,376
2018-05-03T12:54:08.138Z,594
2018-05-03T12:55:26.744Z,530
2018-05-03T12:56:47.789Z,424
2018-05-03T12:58:29.980Z,442
2018-05-03T12:59:30.677Z,507
2018-05-03T13:00:29.715Z,559
2018-05-03T13:01:31.432Z,686
2018-05-03T13:02:30.658Z,562
2018-05-03T13:03:29.989Z,512
2018-05-03T13:04:30.197Z,435
2018-05-03T13:05:30.160Z,557
2018-05-03T13:06:30.136Z,458
2018-05-03T13:07:30.167Z,413
2018-05-03T13:08:51.887Z,578
2018-05-03T13:09:52.493Z,558
2018-05-03T13:10:51.667Z,609
2018-05-03T13:11:51.643Z,638
2018-05-03T13:12:51.847Z,625
2018-05-03T13:13:51.748Z,710
2018-05-03T13:14:51.979Z,319
2018-05-03T13:15:51.819Z,640
2018-05-03T13:16:51.852Z,260
2018-05-03T13:17:51.632Z,263
2018-05-03T13:19:12.429Z,246
2018-05-03T13:20:12.837Z,337
2018-05-03T13:21:12.871Z,285
2018-05-03T13:22:13.311Z,454
2018-05-03T13:23:12.260Z,453
2018-05-03T13:24:12.417Z,652
2018-05-03T13:25:12.550Z,556
2018-05-03T13:26:12.570Z,651
2018-05-03T13:27:33.571Z,673
2018-05-03T13:28:34.898Z,706
2018-05-03T13:29:56.415Z,578
2018-05-03T13:31:17.647Z,489
2018-05-03T13:32:18.348Z,595
2018-05-03T13:33:39.711Z,644
2018-05-03T13:34:41.126Z,701
2018-05-03T13:35:40.532Z,694
2018-05-03T13:36:41.011Z,401
2018-05-03T13:38:01.724Z,644
2018-05-03T13:39:02.456Z,460
2018-05-03T13:40:01.747Z,523
2018-05-03T13:41:02.243Z,587
2018-05-03T13:42:01.500Z,649
2018-05-03T13:43:01.497Z,564
2018-05-03T13:44:01.339Z,493
2018-05-03T13:45:01.321Z,479
2018-05-03T13:46:01.155Z,536
2018-05-03T13:47:01.292Z,570
2018-05-03T13:48:01.251Z,546
2018-05-03T13:49:01.770Z,527
2018-05-03T13:50:01.829Z,483
2018-05-03T13:51:02.795Z,427
2018-05-03T13:52:02.342Z,414
2018-05-03T13:53:01.297Z,357
2018-05-03T13:54:01.199Z,398
2018-05-03T13:55:44.959Z,532
2018-05-03T13:56:44.112Z,573
2018-05-03T13:57:44.311Z,616
2018-05-03T13:58:44.865Z,609
2018-05-03T14:00:04.557Z,593
2018-05-03T14:01:06.468Z,587
2018-05-03T14:02:06.049Z,532
2018-05-03T14:03:06.397Z,516
2018-05-03T14:04:05.685Z,522
2018-05-03T14:05:05.431Z,522
2018-05-03T14:06:06.902Z,539
2018-05-03T14:07:34.628Z,549
2018-05-03T14:08:35.389Z,561
2018-05-03T14:09:56.669Z,583
2018-05-03T14:10:57.233Z,296
2018-05-03T14:11:57.227Z,275
2018-05-03T14:12:56.289Z,236
2018-05-03T14:14:17.020Z,235
2018-05-03T14:15:17.035Z,551
2018-05-03T14:16:17.775Z,342
2018-05-03T14:17:18.135Z,207
2018-05-03T14:18:17.345Z,194
2018-05-03T14:19:17.757Z,176
2018-05-03T14:20:18.642Z,163
2018-05-03T14:21:17.682Z,153
2018-05-03T14:22:18.050Z,146
2018-05-03T14:23:17.530Z,136
2018-05-03T14:24:18.462Z,141
2018-05-03T14:25:38.168Z,145
2018-05-03T14:26:39.725Z,149
2018-05-03T14:27:39.341Z,153
2018-05-03T14:29:22.145Z,158
2018-05-03T14:30:51.490Z,161
2018-05-03T14:31:52.912Z,163
2018-05-03T14:33:12.938Z,164
2018-05-03T14:34:13.085Z,161
2018-05-03T14:35:13.200Z,162
2018-05-03T14:36:12.938Z,164
2018-05-03T14:37:13.323Z,167
2018-05-03T14:38:14.183Z,169
2018-05-03T14:39:34.653Z,170
2018-05-03T14:40:34.611Z,174
2018-05-03T14:41:34.774Z,178
2018-05-03T14:42:35.516Z,183
2018-05-03T14:43:34.890Z,189
2018-05-03T14:44:35.192Z,194
2018-05-03T14:45:36.839Z,201
2018-05-03T14:46:55.607Z,213
2018-05-03T14:47:56.017Z,217
2018-05-03T14:49:16.422Z,233
2018-05-03T14:50:17.660Z,239
2018-05-03T14:51:16.868Z,365
2018-05-03T14:52:16.880Z,439
2018-05-03T14:53:17.092Z,435
2018-05-03T14:54:17.020Z,430
2018-05-03T14:55:18.193Z,427
2018-05-03T14:56:17.321Z,450
2018-05-03T14:57:17.552Z,445
2018-05-03T14:58:16.884Z,440